createdAt,value
2019-04-16T00:02:04.496Z,5.20
2019-04-16T00:06:15.802Z,5.33
2019-04-16T00:10:37.299Z,5.73
2019-04-16T00:14:44.051Z,5.40
2019-04-16T00:18:57.218Z,5.50
2019-04-16T00:22:59.781Z,5.73
2019-04-16T00:27:04.003Z,5.40
2019-04-16T00:31:08.057Z,5.50
2019-04-16T00:35:15.414Z,4.97
2019-04-16T00:39:18.019Z,5.53
2019-04-16T00:43:22.166Z,5.77
2019-04-16T00:47:26.186Z,5.60
2019-04-16T00:51:30.370Z,5.60
2019-04-16T00:55:34.510Z,5.53
2019-04-16T00:59:39.618Z,5.43
2019-04-16T01:03:43.755Z,5.07
2019-04-16T01:07:47.767Z,4.90
2019-04-16T01:11:51.940Z,4.73
2019-04-16T01:15:56.033Z,5.43
2019-04-16T01:20:00.244Z,5.27
2019-04-16T01:24:04.558Z,4.60
2019-04-16T01:28:11.972Z,5.10
2019-04-16T01:32:35.256Z,5.53
2019-04-16T01:36:54.281Z,5.60
2019-04-16T01:41:00.465Z,4.50
2019-04-16T01:45:05.210Z,5.40
2019-04-16T01:49:10.514Z,5.40
2019-04-16T01:53:15.198Z,5.40
2019-04-16T01:57:19.311Z,4.97
2019-04-16T02:01:23.351Z,5.10
2019-04-16T02:05:27.611Z,5.57
2019-04-16T02:09:34.728Z,4.90
2019-04-16T02:13:37.390Z,4.83
2019-04-16T02:17:41.386Z,4.93
2019-04-16T02:21:45.334Z,4.73
2019-04-16T02:25:51.283Z,5.40
2019-04-16T02:29:55.173Z,5.50
2019-04-16T02:33:59.354Z,5.07
2019-04-16T02:38:11.053Z,5.03
2019-04-16T02:42:09.186Z,4.53
2019-04-16T02:46:13.570Z,4.50
2019-04-16T02:50:30.218Z,5.00
2019-04-16T02:54:34.675Z,5.40
2019-04-16T02:58:46.115Z,4.93
2019-04-16T03:02:55.510Z,4.83
2019-04-16T03:07:02.761Z,5.13
2019-04-16T03:11:05.514Z,5.13
2019-04-16T03:15:09.566Z,4.40
2019-04-16T03:19:20.128Z,5.30
2019-04-16T03:23:22.502Z,4.67
2019-04-16T03:27:26.479Z,4.87
2019-04-16T03:31:30.537Z,4.47
2019-04-16T03:35:34.645Z,4.33
2019-04-16T03:39:43.848Z,4.90
2019-04-16T03:43:44.473Z,4.90
2019-04-16T03:47:51.378Z,4.90
2019-04-16T03:51:54.467Z,4.87
2019-04-16T03:55:59.163Z,4.73
2019-04-16T04:04:30.306Z,5.17
2019-04-16T04:08:34.304Z,5.20
2019-04-16T04:12:38.565Z,4.30
2019-04-16T04:16:42.564Z,4.83
2019-04-16T04:20:49.782Z,4.73
2019-04-16T04:24:52.530Z,4.80
2019-04-16T04:28:56.563Z,4.33
2019-04-16T04:33:00.664Z,4.93
2019-04-16T04:37:04.644Z,5.50
2019-04-16T04:41:08.730Z,5.33
2019-04-16T04:45:12.822Z,5.20
2019-04-16T04:49:16.840Z,4.03
2019-04-16T04:53:21.005Z,4.07
2019-04-16T04:57:25.074Z,4.60
2019-04-16T05:01:29.111Z,5.00
2019-04-16T05:05:37.754Z,4.67
2019-04-16T05:09:41.792Z,5.13
2019-04-16T05:13:45.940Z,4.90
2019-04-16T05:17:49.958Z,4.30
2019-04-16T05:21:54.202Z,4.77
2019-04-16T05:25:58.363Z,4.50
2019-04-16T05:30:02.331Z,4.87
2019-04-16T05:34:06.755Z,4.57
2019-04-16T05:38:10.949Z,4.43
2019-04-16T05:42:14.889Z,4.67
2019-04-16T05:46:18.911Z,3.87
2019-04-16T05:50:22.927Z,5.03
2019-04-16T05:54:46.356Z,4.47
2019-04-16T05:58:50.599Z,5.17
2019-04-16T06:02:54.507Z,4.80
2019-04-16T06:07:02.871Z,5.20
2019-04-16T06:11:04.235Z,4.90
2019-04-16T06:15:21.287Z,5.27
2019-04-16T06:19:32.207Z,4.63
2019-04-16T06:23:48.357Z,4.83
2019-04-16T06:28:11.870Z,4.77
2019-04-16T06:32:28.565Z,5.00
2019-04-16T06:36:46.018Z,4.63
2019-04-16T06:41:03.050Z,4.83
2019-04-16T06:45:14.762Z,4.60
2019-04-16T06:49:26.981Z,4.63
2019-04-16T06:53:50.315Z,5.30
2019-04-16T06:58:16.650Z,4.80
2019-04-16T07:02:32.721Z,5.10
2019-04-16T07:06:56.042Z,5.20
2019-04-16T07:11:01.696Z,5.07
2019-04-16T07:15:06.079Z,5.50
2019-04-16T07:19:11.212Z,5.77
2019-04-16T07:23:15.783Z,5.97
2019-04-16T07:27:21.223Z,5.27
2019-04-16T07:31:34.722Z,6.33
2019-04-16T07:35:49.162Z,5.90
2019-04-16T07:40:12.429Z,5.87
2019-04-16T07:44:22.184Z,6.50
2019-04-16T07:48:33.091Z,6.37
2019-04-16T07:52:42.720Z,5.87
2019-04-16T07:56:49.285Z,5.90
2019-04-16T08:00:53.403Z,6.10
2019-04-16T08:04:57.819Z,6.63
2019-04-16T08:09:01.961Z,6.35
2019-04-16T08:13:14.097Z,6.20
2019-04-16T08:17:18.105Z,6.22
2019-04-16T08:21:22.953Z,5.83
2019-04-16T08:25:33.544Z,6.85
2019-04-16T08:29:35.760Z,6.80
2019-04-16T08:33:39.807Z,5.95
2019-04-16T08:37:49.290Z,6.62
2019-04-16T08:41:52.504Z,5.97
2019-04-16T08:45:55.637Z,7.00
2019-04-16T08:49:59.791Z,6.53
2019-04-16T08:54:03.986Z,6.75
2019-04-16T08:58:12.285Z,7.40
2019-04-16T09:02:14.887Z,7.17
2019-04-16T09:06:19.242Z,6.97
2019-04-16T09:10:24.206Z,6.47
2019-04-16T09:14:30.140Z,7.22
2019-04-16T09:18:53.403Z,7.30
2019-04-16T09:22:59.152Z,6.62
2019-04-16T09:27:08.756Z,6.85
2019-04-16T09:31:32.099Z,6.45
2019-04-16T09:35:45.210Z,6.75
2019-04-16T09:40:16.451Z,6.72
2019-04-16T09:44:14.341Z,6.22
2019-04-16T09:48:18.477Z,5.83
2019-04-16T09:52:23.008Z,5.47
2019-04-16T09:56:29.907Z,5.80
2019-04-16T10:00:35.499Z,5.33
2019-04-16T10:04:39.659Z,5.12
2019-04-16T10:08:45.103Z,5.83
2019-04-16T10:12:53.901Z,5.47
2019-04-16T10:16:58.123Z,5.90
2019-04-16T10:21:02.364Z,5.17
2019-04-16T10:25:14.645Z,5.47
2019-04-16T10:29:20.038Z,5.00
2019-04-16T10:33:27.015Z,6.03
2019-04-16T10:37:31.135Z,4.80
2019-04-16T10:41:42.297Z,4.97
2019-04-16T10:46:05.716Z,5.60
2019-04-16T10:50:15.845Z,5.80
2019-04-16T10:54:29.122Z,5.70
2019-04-16T10:58:52.636Z,4.70
2019-04-16T11:03:10.877Z,4.97
2019-04-16T11:07:18.760Z,5.40
2019-04-16T11:11:22.886Z,4.87
2019-04-16T11:15:31.250Z,4.72
2019-04-16T11:19:37.287Z,3.90
2019-04-16T11:23:41.539Z,4.78
2019-04-16T11:27:45.624Z,4.33
2019-04-16T11:31:49.770Z,5.17
2019-04-16T11:35:53.839Z,4.62
2019-04-16T11:39:57.977Z,4.65
2019-04-16T11:44:14.275Z,4.70
2019-04-16T11:48:08.061Z,4.60
2019-04-16T11:52:12.225Z,5.60
2019-04-16T11:56:16.388Z,4.58
2019-04-16T12:00:41.198Z,4.55
2019-04-16T12:04:57.231Z,4.83
2019-04-16T12:09:18.400Z,5.25
2019-04-16T12:13:29.032Z,4.10
2019-04-16T12:17:46.424Z,4.20
2019-04-16T12:22:09.875Z,3.77
2019-04-16T12:26:33.380Z,3.85
2019-04-16T12:30:56.892Z,3.35
2019-04-16T12:35:20.227Z,4.70
2019-04-16T12:39:35.850Z,3.92
2019-04-16T12:43:58.541Z,4.15
2019-04-16T12:48:21.993Z,3.62
2019-04-16T12:52:38.832Z,3.92
2019-04-16T12:56:50.193Z,3.72
2019-04-16T13:01:08.582Z,3.80
2019-04-16T13:05:21.827Z,4.05
2019-04-16T13:09:45.180Z,4.22
2019-04-16T13:14:00.799Z,3.85
2019-04-16T13:18:12.280Z,3.55
2019-04-16T13:22:17.919Z,3.70
2019-04-16T13:26:24.880Z,3.85
2019-04-16T13:30:28.902Z,3.92
2019-04-16T13:34:33.123Z,4.70
2019-04-16T13:38:40.351Z,4.03
2019-04-16T13:42:45.073Z,3.62
2019-04-16T13:46:49.157Z,3.87
2019-04-16T13:50:57.564Z,3.62
2019-04-16T13:55:10.395Z,4.28
2019-04-16T13:59:33.959Z,3.98
2019-04-16T14:03:38.244Z,3.05
2019-04-16T14:07:42.299Z,2.75
2019-04-16T14:11:51.042Z,2.92
2019-04-16T14:15:52.384Z,3.12
2019-04-16T14:19:56.470Z,3.30
2019-04-16T14:24:00.621Z,3.12
2019-04-16T14:28:04.774Z,3.22
2019-04-16T14:32:09.045Z,2.85
2019-04-16T14:36:13.303Z,3.02
2019-04-16T14:40:21.250Z,3.20
2019-04-16T14:44:26.896Z,3.58
2019-04-16T14:48:31.044Z,2.83
2019-04-16T14:52:35.146Z,2.40
2019-04-16T14:56:41.652Z,2.20
2019-04-16T15:01:05.100Z,1.25
2019-04-16T15:05:15.781Z,1.22
2019-04-16T15:09:27.113Z,1.00
2019-04-16T15:13:41.325Z,0.93
2019-04-16T15:17:48.659Z,1.12
2019-04-16T15:22:14.870Z,0.98
2019-04-16T15:26:38.199Z,0.70
2019-04-16T15:30:46.981Z,0.98
2019-04-16T15:34:51.489Z,0.88
2019-04-16T15:39:06.427Z,0.80
2019-04-16T15:43:30.149Z,1.02
2019-04-16T15:47:47.001Z,0.70
2019-04-16T15:52:11.494Z,0.50
2019-04-16T15:56:30.189Z,0.70
2019-04-16T16:00:53.480Z,0.70
2019-04-16T16:05:06.044Z,0.75
2019-04-16T16:09:14.641Z,0.60
2019-04-16T16:13:18.853Z,0.80
2019-04-16T16:17:23.424Z,0.80
2019-04-16T16:21:28.688Z,1.00
2019-04-16T16:25:32.745Z,1.07
2019-04-16T16:29:36.849Z,1.20
2019-04-16T16:33:40.929Z,1.17
2019-04-16T16:37:45.071Z,1.30
2019-04-16T16:41:49.128Z,1.13
2019-04-16T16:46:12.430Z,1.27
2019-04-16T16:50:17.213Z,1.10
2019-04-16T16:54:25.076Z,1.10
2019-04-16T16:58:38.895Z,0.87
2019-04-16T17:02:48.254Z,1.30
2019-04-16T17:06:54.073Z,0.80
2019-04-16T17:11:13.933Z,1.20
2019-04-16T17:15:07.873Z,2.43
2019-04-16T17:19:10.027Z,1.80
2019-04-16T17:23:16.741Z,1.70
2019-04-16T17:27:20.206Z,1.30
2019-04-16T17:31:24.453Z,1.30
2019-04-16T17:35:28.568Z,1.73
2019-04-16T17:39:43.944Z,1.60
2019-04-16T17:44:07.147Z,2.10
2019-04-16T17:48:18.105Z,1.50
2019-04-16T17:52:29.262Z,1.63
2019-04-16T17:56:55.433Z,1.10
2019-04-16T18:01:17.441Z,1.30
2019-04-16T18:05:40.881Z,1.40
2019-04-16T18:10:00.676Z,1.70
2019-04-16T18:14:20.497Z,1.10
2019-04-16T18:18:29.146Z,1.23
2019-04-16T18:22:41.915Z,0.97
2019-04-16T18:27:05.505Z,0.80
2019-04-16T18:31:23.203Z,1.00
2019-04-16T18:35:29.943Z,0.90
2019-04-16T18:39:39.744Z,0.93
2019-04-16T18:44:02.983Z,0.87
2019-04-16T18:48:14.280Z,1.10
2019-04-16T18:52:18.307Z,1.00
2019-04-16T18:56:22.397Z,1.20
2019-04-16T19:00:33.774Z,1.37
2019-04-16T19:04:37.836Z,1.40
2019-04-16T19:08:42.473Z,1.50
2019-04-16T19:12:46.575Z,1.30
2019-04-16T19:16:50.803Z,1.50
2019-04-16T19:20:56.601Z,1.30
2019-04-16T19:25:00.940Z,1.50
2019-04-16T19:29:05.930Z,1.60
2019-04-16T19:33:10.356Z,1.40
2019-04-16T19:37:15.755Z,1.33
2019-04-16T19:41:23.341Z,1.20
2019-04-16T19:45:25.444Z,1.50
2019-04-16T19:49:29.512Z,1.90
2019-04-16T19:53:33.753Z,1.70
2019-04-16T19:57:37.821Z,1.50
2019-04-16T20:01:42.004Z,1.50
2019-04-16T20:05:46.043Z,1.47
2019-04-16T20:09:50.131Z,1.47
2019-04-16T20:13:54.253Z,1.57
2019-04-16T20:17:58.507Z,1.63
2019-04-16T20:22:02.859Z,1.60
2019-04-16T20:26:06.971Z,2.00
2019-04-16T20:30:13.191Z,1.57
2019-04-16T20:34:18.169Z,1.63
2019-04-16T20:38:22.311Z,1.97
2019-04-16T20:42:26.283Z,2.77
2019-04-16T20:46:30.304Z,2.70
2019-04-16T20:50:34.326Z,3.03
2019-04-16T20:54:44.027Z,2.00
2019-04-16T20:58:45.714Z,1.40
2019-04-16T21:02:51.159Z,1.33
2019-04-16T21:06:55.442Z,1.77
2019-04-16T21:11:00.071Z,1.70
2019-04-16T21:15:05.188Z,1.50
2019-04-16T21:19:22.076Z,1.60
2019-04-16T21:23:15.097Z,1.47
2019-04-16T21:27:19.210Z,1.33
2019-04-16T21:31:28.035Z,1.20
2019-04-16T21:35:36.269Z,1.10
2019-04-16T21:39:47.195Z,1.10
2019-04-16T21:43:51.379Z,0.90
2019-04-16T21:47:56.402Z,0.90
2019-04-16T21:52:08.026Z,0.83
2019-04-16T21:56:14.717Z,0.90
2019-04-16T22:00:39.668Z,0.93
2019-04-16T22:04:46.162Z,0.70
2019-04-16T22:08:50.139Z,0.70
2019-04-16T22:12:54.137Z,0.70
2019-04-16T22:16:59.937Z,0.70
2019-04-16T22:21:09.035Z,0.70
2019-04-16T22:25:09.909Z,0.60
2019-04-16T22:29:15.767Z,0.60
2019-04-16T22:33:19.818Z,0.67
2019-04-16T22:37:23.893Z,0.60
2019-04-16T22:41:33.903Z,0.60
2019-04-16T22:45:44.802Z,0.60
2019-04-16T22:49:51.531Z,0.80
2019-04-16T22:53:54.464Z,0.97
2019-04-16T22:57:59.867Z,0.70
2019-04-16T23:02:10.043Z,0.80
2019-04-16T23:06:14.015Z,0.70
2019-04-16T23:10:21.084Z,0.80
2019-04-16T23:14:23.829Z,0.70
2019-04-16T23:18:28.028Z,0.60
2019-04-16T23:22:32.014Z,0.70
2019-04-16T23:26:36.013Z,0.83
2019-04-16T23:30:40.177Z,0.90
2019-04-16T23:34:44.234Z,0.70
2019-04-16T23:38:48.296Z,0.90
2019-04-16T23:42:58.950Z,0.60
2019-04-16T23:47:22.191Z,0.80
2019-04-16T23:51:34.704Z,0.80
2019-04-16T23:55:57.971Z,0.70
